createdAt,value
2022-10-15T00:01:08.725Z,85.20
2022-10-15T00:03:38.402Z,85.30
2022-10-15T00:06:08.809Z,85.40
2022-10-15T00:08:37.808Z,85.40
2022-10-15T00:11:11.054Z,85.30
2022-10-15T00:13:40.778Z,85.30
2022-10-15T00:16:15.023Z,85.40
2022-10-15T00:18:43.959Z,85.20
2022-10-15T00:21:15.053Z,85.10
2022-10-15T00:23:43.596Z,84.90
2022-10-15T00:26:13.588Z,84.80
2022-10-15T00:28:43.739Z,84.70
2022-10-15T00:31:13.957Z,84.50
2022-10-15T00:33:42.779Z,84.50
2022-10-15T00:36:14.754Z,84.20
2022-10-15T00:38:43.505Z,83.90
2022-10-15T00:41:15.961Z,83.90
2022-10-15T00:43:47.465Z,84.00
2022-10-15T00:46:23.337Z,83.90
2022-10-15T00:48:55.829Z,83.60
2022-10-15T00:51:25.902Z,83.30
2022-10-15T00:53:54.107Z,83.30
2022-10-15T00:56:25.114Z,83.40
2022-10-15T00:58:56.298Z,83.50
2022-10-15T01:01:25.744Z,83.60
2022-10-15T01:03:55.612Z,83.70
2022-10-15T01:06:24.324Z,83.70
2022-10-15T01:08:52.776Z,83.70
2022-10-15T01:11:35.657Z,83.70
2022-10-15T01:14:12.854Z,83.40
2022-10-15T01:16:47.129Z,83.30
2022-10-15T01:19:32.817Z,83.40
2022-10-15T01:22:06.108Z,83.30
2022-10-15T01:24:50.637Z,83.30
2022-10-15T01:27:42.892Z,83.00
2022-10-15T01:30:28.447Z,82.90
2022-10-15T01:33:20.980Z,82.80
2022-10-15T01:35:52.527Z,82.30
2022-10-15T01:38:26.623Z,82.30
2022-10-15T01:40:58.881Z,82.60
2022-10-15T01:43:33.695Z,82.60
2022-10-15T01:46:06.661Z,82.70
2022-10-15T01:48:37.696Z,82.90
2022-10-15T01:51:07.501Z,83.30
2022-10-15T01:53:37.549Z,83.50
2022-10-15T01:56:09.673Z,83.60
2022-10-15T01:58:41.093Z,83.70
2022-10-15T02:01:10.915Z,83.70
2022-10-15T02:03:47.499Z,84.00
2022-10-15T02:06:22.177Z,84.10
2022-10-15T02:09:00.702Z,84.00
2022-10-15T02:11:29.209Z,84.20
2022-10-15T02:14:02.755Z,84.20
2022-10-15T02:16:39.201Z,84.30
2022-10-15T02:19:13.624Z,84.40
2022-10-15T02:21:46.801Z,84.40
2022-10-15T02:24:18.856Z,84.40
2022-10-15T02:26:48.289Z,84.20
2022-10-15T02:29:22.431Z,84.20
2022-10-15T02:31:52.460Z,84.20
2022-10-15T02:34:23.764Z,84.30
2022-10-15T02:36:52.891Z,84.30
2022-10-15T02:39:24.760Z,84.40
2022-10-15T02:41:54.314Z,84.50
2022-10-15T02:44:22.907Z,84.60
2022-10-15T02:46:52.545Z,84.40
2022-10-15T02:49:20.694Z,84.70
2022-10-15T02:51:48.767Z,84.50
2022-10-15T02:54:16.988Z,84.80
2022-10-15T02:56:45.118Z,84.70
2022-10-15T02:59:13.229Z,84.90
2022-10-15T03:01:41.270Z,84.90
2022-10-15T03:04:10.758Z,85.10
2022-10-15T03:06:39.031Z,85.20
2022-10-15T03:09:07.190Z,85.20
2022-10-15T03:11:35.315Z,85.20
2022-10-15T03:14:05.698Z,85.00
2022-10-15T03:16:33.992Z,85.20
2022-10-15T03:19:02.114Z,85.20
2022-10-15T03:21:31.553Z,85.20
2022-10-15T03:23:59.841Z,85.40
2022-10-15T03:26:27.963Z,85.40
2022-10-15T03:28:56.102Z,85.50
2022-10-15T03:31:24.293Z,85.60
2022-10-15T03:33:52.396Z,85.70
2022-10-15T03:36:20.487Z,85.90
2022-10-15T03:38:49.968Z,85.90
2022-10-15T03:41:18.090Z,86.00
2022-10-15T03:43:46.166Z,85.90
2022-10-15T03:46:14.288Z,85.80
2022-10-15T03:48:42.345Z,85.90
2022-10-15T03:51:10.467Z,86.10
2022-10-15T03:53:38.520Z,86.30
2022-10-15T03:56:08.532Z,86.30
2022-10-15T03:58:36.681Z,86.10
2022-10-15T04:01:10.765Z,86.10
2022-10-15T04:03:39.290Z,86.00
2022-10-15T04:06:08.024Z,86.10
2022-10-15T04:08:36.301Z,86.00
2022-10-15T04:11:04.477Z,86.00
2022-10-15T04:13:33.920Z,85.90
2022-10-15T04:16:02.018Z,85.90
2022-10-15T04:18:30.299Z,85.60
2022-10-15T04:21:00.442Z,85.40
2022-10-15T04:23:28.933Z,85.20
2022-10-15T04:26:01.165Z,85.00
2022-10-15T04:28:30.159Z,84.90
2022-10-15T04:31:00.554Z,84.70
2022-10-15T04:33:29.161Z,84.40
2022-10-15T04:36:01.937Z,84.50
2022-10-15T04:38:30.520Z,84.50
2022-10-15T04:41:02.956Z,84.50
2022-10-15T04:43:31.367Z,84.50
2022-10-15T04:46:02.237Z,84.70
2022-10-15T04:48:31.118Z,85.20
2022-10-15T04:51:04.950Z,84.80
2022-10-15T04:53:33.210Z,84.90
2022-10-15T04:56:03.193Z,84.90
2022-10-15T04:58:32.526Z,85.10
2022-10-15T05:01:02.993Z,84.90
2022-10-15T05:03:31.238Z,85.00
2022-10-15T05:06:02.976Z,85.10
2022-10-15T05:08:31.474Z,85.20
2022-10-15T05:11:02.021Z,85.20
2022-10-15T05:13:31.933Z,85.30
2022-10-15T05:16:11.961Z,85.10
2022-10-15T05:18:40.158Z,85.30
2022-10-15T05:21:08.886Z,85.30
2022-10-15T05:23:37.876Z,85.20
2022-10-15T05:26:07.632Z,85.10
2022-10-15T05:28:36.379Z,85.10
2022-10-15T05:31:08.589Z,85.30
2022-10-15T05:33:38.024Z,85.50
2022-10-15T05:36:13.416Z,85.60
2022-10-15T05:38:41.825Z,85.50
2022-10-15T05:41:09.939Z,85.40
2022-10-15T05:43:40.495Z,85.60
2022-10-15T05:46:10.137Z,85.60
2022-10-15T05:48:39.682Z,85.40
2022-10-15T05:51:09.900Z,85.60
2022-10-15T05:53:38.849Z,85.70
2022-10-15T05:56:08.145Z,85.70
2022-10-15T05:58:37.749Z,85.60
2022-10-15T06:01:08.162Z,85.40
2022-10-15T06:03:37.132Z,85.30
2022-10-15T06:06:14.068Z,85.20
2022-10-15T06:08:42.378Z,85.00
2022-10-15T06:11:10.608Z,84.10
2022-10-15T06:13:39.885Z,84.20
2022-10-15T06:16:08.469Z,83.70
2022-10-15T06:18:37.322Z,83.50
2022-10-15T06:21:07.819Z,83.60
2022-10-15T06:23:36.491Z,83.60
2022-10-15T06:26:05.607Z,83.50
2022-10-15T06:28:34.164Z,83.10
2022-10-15T06:31:02.736Z,82.90
2022-10-15T06:33:31.687Z,83.00
2022-10-15T06:36:02.632Z,83.10
2022-10-15T06:38:33.169Z,83.10
2022-10-15T06:41:01.442Z,83.00
2022-10-15T06:43:31.162Z,82.90
2022-10-15T06:46:01.541Z,83.10
2022-10-15T06:48:29.773Z,83.10
2022-10-15T06:50:59.625Z,82.90
2022-10-15T06:53:28.049Z,82.80
2022-10-15T06:55:59.923Z,82.90
2022-10-15T06:58:28.461Z,83.10
2022-10-15T07:01:01.614Z,83.20
2022-10-15T07:03:29.974Z,83.10
2022-10-15T07:06:02.398Z,83.00
2022-10-15T07:08:30.541Z,82.60
2022-10-15T07:11:02.038Z,82.30
2022-10-15T07:13:30.798Z,82.10
2022-10-15T07:15:58.999Z,82.10
2022-10-15T07:18:27.129Z,82.00
2022-10-15T07:20:55.211Z,81.80
2022-10-15T07:23:27.006Z,81.50
2022-10-15T07:25:56.180Z,81.40
2022-10-15T07:28:25.949Z,81.20
2022-10-15T07:30:54.608Z,81.10
2022-10-15T07:33:22.795Z,81.00
2022-10-15T07:35:50.921Z,81.00
2022-10-15T07:38:19.038Z,80.90
2022-10-15T07:40:47.199Z,80.90
2022-10-15T07:43:16.027Z,80.60
2022-10-15T07:45:49.222Z,80.20
2022-10-15T07:48:17.337Z,79.50
2022-10-15T07:50:45.469Z,79.50
2022-10-15T07:53:13.810Z,79.20
2022-10-15T07:55:41.922Z,78.90
2022-10-15T07:58:10.024Z,79.00
2022-10-15T08:00:38.202Z,78.90
2022-10-15T08:03:07.668Z,78.70
2022-10-15T08:05:36.096Z,78.70
2022-10-15T08:08:04.764Z,78.60
2022-10-15T08:10:32.899Z,77.90
2022-10-15T08:13:00.989Z,78.10
2022-10-15T08:15:29.187Z,77.80
2022-10-15T08:17:57.335Z,77.70
2022-10-15T08:20:26.885Z,77.70
2022-10-15T08:22:54.996Z,77.40
2022-10-15T08:25:23.156Z,77.40
2022-10-15T08:27:51.643Z,76.90
2022-10-15T08:30:19.778Z,76.30
2022-10-15T08:32:47.969Z,76.60
2022-10-15T08:35:16.363Z,75.90
2022-10-15T08:37:48.010Z,76.00
2022-10-15T08:40:17.481Z,75.90
2022-10-15T08:42:55.322Z,75.40
2022-10-15T08:45:29.168Z,75.50
2022-10-15T08:48:01.197Z,75.60
2022-10-15T08:50:37.655Z,75.40
2022-10-15T08:53:07.188Z,75.50
2022-10-15T08:55:40.173Z,75.00
2022-10-15T08:58:16.074Z,75.00
2022-10-15T09:00:48.210Z,75.50
2022-10-15T09:03:31.392Z,74.90
2022-10-15T09:06:08.999Z,75.30
2022-10-15T09:08:48.779Z,74.80
2022-10-15T09:11:22.477Z,74.70
2022-10-15T09:13:50.965Z,75.00
2022-10-15T09:16:23.842Z,74.10
2022-10-15T09:18:53.813Z,74.50
2022-10-15T09:21:25.025Z,74.40
2022-10-15T09:23:57.859Z,74.20
2022-10-15T09:26:30.389Z,74.10
2022-10-15T09:29:06.566Z,74.10
2022-10-15T09:31:40.658Z,72.90
2022-10-15T09:34:15.807Z,73.20
2022-10-15T09:36:50.343Z,73.50
2022-10-15T09:39:39.984Z,73.10
2022-10-15T09:42:20.797Z,73.30
2022-10-15T09:44:49.156Z,72.30
2022-10-15T09:47:23.700Z,72.70
2022-10-15T09:49:52.108Z,72.60
2022-10-15T09:52:29.897Z,72.10
2022-10-15T09:55:07.826Z,72.70
2022-10-15T09:57:37.621Z,72.20
2022-10-15T10:00:09.638Z,72.10
2022-10-15T10:02:39.106Z,72.00
2022-10-15T10:05:30.093Z,71.80
2022-10-15T10:08:10.608Z,71.50
2022-10-15T10:10:43.028Z,71.60
2022-10-15T10:13:25.371Z,71.40
2022-10-15T10:15:59.616Z,70.80
2022-10-15T10:18:27.853Z,70.90
2022-10-15T10:21:02.681Z,70.20
2022-10-15T10:23:36.744Z,70.60
2022-10-15T10:26:08.253Z,70.30
2022-10-15T10:28:44.176Z,70.60
2022-10-15T10:31:13.108Z,70.50
2022-10-15T10:33:47.772Z,70.60
2022-10-15T10:36:25.705Z,70.10
2022-10-15T10:38:59.715Z,69.60
2022-10-15T10:41:50.426Z,69.60
2022-10-15T10:44:27.443Z,69.70
2022-10-15T10:47:12.098Z,69.60
2022-10-15T10:49:42.256Z,69.20
2022-10-15T10:52:22.730Z,69.30
2022-10-15T10:54:56.704Z,69.40
2022-10-15T10:57:33.710Z,69.20
2022-10-15T11:00:04.313Z,69.30
2022-10-15T11:02:40.654Z,69.30
2022-10-15T11:05:12.634Z,69.30
2022-10-15T11:07:49.799Z,69.50
2022-10-15T11:10:25.527Z,68.20
2022-10-15T11:13:08.609Z,68.90
2022-10-15T11:15:46.643Z,68.20
2022-10-15T11:18:46.580Z,67.90
2022-10-15T11:21:23.346Z,67.50
2022-10-15T11:24:04.675Z,67.40
2022-10-15T11:26:58.705Z,66.70
2022-10-15T11:29:39.308Z,66.70
2022-10-15T11:32:25.956Z,65.80
2022-10-15T11:35:17.136Z,66.20
2022-10-15T11:38:02.813Z,65.30
2022-10-15T11:40:37.008Z,65.50
2022-10-15T11:43:14.348Z,65.30
2022-10-15T11:45:57.764Z,64.80
2022-10-15T11:48:35.882Z,64.60
2022-10-15T11:51:09.991Z,63.80
2022-10-15T11:54:12.581Z,64.20
2022-10-15T11:56:45.052Z,64.10
2022-10-15T11:59:24.931Z,63.60
2022-10-15T12:01:58.423Z,63.90
2022-10-15T12:04:34.067Z,63.70
2022-10-15T12:07:05.916Z,63.90
2022-10-15T12:09:39.089Z,63.40
2022-10-15T12:12:13.195Z,63.10
2022-10-15T12:14:48.310Z,63.40
2022-10-15T12:17:25.019Z,63.60
2022-10-15T12:19:57.415Z,63.00
2022-10-15T12:22:35.064Z,63.20
2022-10-15T12:25:03.679Z,62.90
2022-10-15T12:27:35.606Z,62.70
2022-10-15T12:30:24.688Z,63.50
2022-10-15T12:32:54.619Z,63.70
2022-10-15T12:35:30.190Z,63.80
2022-10-15T12:38:19.529Z,63.90
2022-10-15T12:40:48.174Z,63.60
2022-10-15T12:43:18.806Z,63.40
2022-10-15T12:45:55.142Z,63.30
2022-10-15T12:48:35.030Z,64.00
2022-10-15T12:51:38.735Z,63.70
2022-10-15T12:54:36.866Z,63.90
2022-10-15T12:57:20.746Z,64.00
2022-10-15T12:59:56.740Z,63.70
2022-10-15T13:02:39.104Z,63.80
2022-10-15T13:05:10.516Z,64.20
2022-10-15T13:07:41.968Z,64.70
2022-10-15T13:10:22.037Z,64.70
2022-10-15T13:12:55.127Z,64.90
2022-10-15T13:15:26.370Z,65.10
2022-10-15T13:17:55.714Z,65.20
2022-10-15T13:20:34.486Z,65.40
2022-10-15T13:23:28.910Z,65.70
2022-10-15T13:26:18.448Z,65.90
2022-10-15T13:28:47.500Z,65.80
2022-10-15T13:31:22.500Z,65.70
2022-10-15T13:33:55.219Z,65.20
2022-10-15T13:36:27.089Z,65.20
2022-10-15T13:38:59.289Z,65.00
2022-10-15T13:41:29.918Z,65.10
2022-10-15T13:44:01.028Z,64.50
2022-10-15T13:46:31.235Z,64.70
2022-10-15T13:49:04.439Z,64.90
2022-10-15T13:51:40.576Z,65.20
2022-10-15T13:54:11.944Z,65.30
2022-10-15T13:56:49.412Z,65.60
2022-10-15T13:59:20.477Z,65.50
2022-10-15T14:01:50.937Z,65.20
2022-10-15T14:04:21.273Z,65.30
2022-10-15T14:09:36.849Z,64.60
2022-10-15T14:12:07.413Z,64.70
2022-10-15T14:14:37.254Z,64.50
2022-10-15T14:17:07.511Z,64.40
2022-10-15T14:19:38.209Z,64.30
2022-10-15T14:22:08.110Z,64.40
2022-10-15T14:24:38.590Z,64.40
2022-10-15T14:27:09.907Z,64.20
2022-10-15T14:29:41.248Z,64.70
2022-10-15T14:32:29.593Z,64.80
2022-10-15T14:34:58.540Z,64.60
2022-10-15T14:37:43.848Z,64.90
2022-10-15T14:40:19.332Z,64.70
2022-10-15T14:42:49.378Z,64.40
2022-10-15T14:45:25.349Z,64.60
2022-10-15T14:47:57.038Z,64.80
2022-10-15T14:50:27.535Z,64.80
2022-10-15T14:52:58.165Z,64.80
2022-10-15T14:55:33.346Z,65.10
2022-10-15T14:58:03.581Z,65.10
2022-10-15T15:00:34.844Z,65.20
2022-10-15T15:03:05.935Z,65.20
2022-10-15T15:05:46.024Z,65.90
2022-10-15T15:08:16.478Z,66.10
2022-10-15T15:10:46.052Z,65.80
2022-10-15T15:13:19.444Z,66.20
2022-10-15T15:15:47.620Z,66.30
2022-10-15T15:18:16.067Z,66.40
2022-10-15T15:20:46.144Z,66.50
2022-10-15T15:23:20.658Z,66.70
2022-10-15T15:25:49.322Z,67.00
2022-10-15T15:28:20.526Z,67.10
2022-10-15T15:30:55.982Z,67.20
2022-10-15T15:33:24.318Z,67.40
2022-10-15T15:35:55.109Z,67.70
2022-10-15T15:38:30.705Z,67.80
2022-10-15T15:41:04.517Z,67.90
2022-10-15T15:43:32.828Z,68.00
2022-10-15T15:46:00.975Z,68.20
2022-10-15T15:48:29.122Z,68.40
2022-10-15T15:51:02.333Z,68.40
2022-10-15T15:53:32.025Z,68.30
2022-10-15T15:56:00.376Z,68.50
2022-10-15T15:58:28.462Z,69.00
2022-10-15T16:00:56.553Z,69.80
2022-10-15T16:03:24.651Z,70.30
2022-10-15T16:05:52.829Z,70.80
2022-10-15T16:08:20.963Z,71.00
2022-10-15T16:10:50.468Z,71.30
2022-10-15T16:13:18.645Z,71.80
2022-10-15T16:15:46.771Z,72.20
2022-10-15T16:18:14.899Z,72.70
2022-10-15T16:20:47.786Z,73.10
2022-10-15T16:23:17.287Z,73.20
2022-10-15T16:25:45.564Z,73.50
2022-10-15T16:28:15.058Z,74.00
2022-10-15T16:30:43.243Z,74.30
2022-10-15T16:33:11.499Z,74.80
2022-10-15T16:35:39.705Z,74.80
2022-10-15T16:38:08.106Z,75.10
2022-10-15T16:40:36.247Z,75.50
2022-10-15T16:43:04.354Z,76.00
2022-10-15T16:45:33.812Z,76.30
2022-10-15T16:48:01.935Z,76.80
2022-10-15T16:50:30.074Z,76.90
2022-10-15T16:52:58.172Z,77.10
2022-10-15T16:55:26.351Z,77.40
2022-10-15T16:57:54.464Z,77.60
2022-10-15T17:00:22.597Z,77.90
2022-10-15T17:02:54.186Z,78.00
2022-10-15T17:05:22.322Z,78.10
2022-10-15T17:07:50.605Z,78.10
2022-10-15T17:10:25.548Z,78.30
2022-10-15T17:12:53.763Z,78.10
2022-10-15T17:15:21.938Z,77.60
2022-10-15T17:17:51.468Z,77.40
2022-10-15T17:20:19.905Z,77.20
2022-10-15T17:22:48.020Z,76.90
2022-10-15T17:25:16.196Z,76.50
2022-10-15T17:27:44.300Z,76.40
2022-10-15T17:30:12.995Z,76.30
2022-10-15T17:32:41.079Z,75.90
2022-10-15T17:35:11.350Z,75.40
2022-10-15T17:37:39.981Z,75.40
2022-10-15T17:40:09.673Z,75.30
2022-10-15T17:42:42.556Z,75.00
2022-10-15T17:45:12.006Z,74.70
2022-10-15T17:47:40.127Z,74.60
2022-10-15T17:50:13.329Z,74.50
2022-10-15T17:52:41.477Z,74.40
2022-10-15T17:55:10.315Z,74.00
2022-10-15T17:57:38.459Z,74.10
2022-10-15T18:00:08.470Z,74.20
2022-10-15T18:02:36.721Z,74.50
2022-10-15T18:05:05.501Z,74.80
2022-10-15T18:07:35.308Z,75.30
2022-10-15T18:10:03.494Z,75.70
2022-10-15T18:12:31.644Z,76.00
2022-10-15T18:14:59.730Z,76.00
2022-10-15T18:17:28.117Z,76.20
2022-10-15T18:19:56.371Z,76.50
2022-10-15T18:22:24.785Z,77.00
2022-10-15T18:24:56.179Z,77.20
2022-10-15T18:27:24.770Z,77.40
2022-10-15T18:29:53.054Z,77.60
2022-10-15T18:32:21.238Z,78.00
2022-10-15T18:34:49.378Z,78.10
2022-10-15T18:37:17.528Z,78.20
2022-10-15T18:39:45.628Z,78.40
2022-10-15T18:42:15.145Z,78.50
2022-10-15T18:44:43.286Z,78.80
2022-10-15T18:47:11.717Z,78.90
2022-10-15T18:49:39.837Z,79.00
2022-10-15T18:52:21.642Z,79.20
2022-10-15T18:54:49.922Z,79.40
2022-10-15T18:57:19.440Z,79.60
2022-10-15T18:59:47.609Z,79.70
2022-10-15T19:02:15.774Z,80.10
2022-10-15T19:04:43.954Z,80.20
2022-10-15T19:07:12.102Z,80.30
2022-10-15T19:09:40.301Z,80.50
2022-10-15T19:12:08.458Z,80.40
2022-10-15T19:14:38.347Z,80.40
2022-10-15T19:17:06.455Z,80.50
2022-10-15T19:19:34.975Z,80.60
2022-10-15T19:22:03.259Z,80.70
2022-10-15T19:24:31.502Z,80.80
2022-10-15T19:27:02.241Z,80.90
2022-10-15T19:29:35.323Z,81.00
2022-10-15T19:32:05.051Z,81.20
2022-10-15T19:34:34.692Z,81.30
2022-10-15T19:37:03.229Z,81.50
2022-10-15T19:39:32.811Z,81.60
2022-10-15T19:42:01.005Z,81.60
2022-10-15T19:44:29.378Z,81.90
2022-10-15T19:46:57.763Z,81.90
2022-10-15T19:49:27.533Z,82.10
2022-10-15T19:52:01.061Z,82.10
2022-10-15T19:54:32.279Z,82.20
2022-10-15T19:57:01.939Z,82.20
2022-10-15T19:59:32.868Z,82.30
2022-10-15T20:02:01.042Z,82.40
2022-10-15T20:04:30.768Z,82.50
2022-10-15T20:06:58.940Z,82.60
2022-10-15T20:09:27.247Z,82.60
2022-10-15T20:11:55.513Z,82.50
2022-10-15T20:14:23.757Z,82.70
2022-10-15T20:16:52.183Z,82.70
2022-10-15T20:19:22.515Z,82.80
2022-10-15T20:21:52.203Z,82.80
2022-10-15T20:24:20.584Z,82.90
2022-10-15T20:26:50.755Z,82.90
2022-10-15T20:29:19.036Z,82.90
2022-10-15T20:31:47.377Z,83.00
2022-10-15T20:34:17.583Z,83.00
2022-10-15T20:36:45.873Z,83.00
2022-10-15T20:39:15.542Z,83.10
2022-10-15T20:41:43.869Z,83.20
2022-10-15T20:44:12.657Z,83.10
2022-10-15T20:46:44.695Z,83.20
2022-10-15T20:49:18.163Z,83.20
2022-10-15T20:51:46.659Z,83.30
2022-10-15T20:54:18.070Z,83.20
2022-10-15T20:56:47.006Z,83.30
2022-10-15T20:59:15.106Z,83.40
2022-10-15T21:01:43.319Z,83.40
2022-10-15T21:04:11.540Z,83.50
2022-10-15T21:06:39.656Z,83.50
2022-10-15T21:09:07.895Z,83.60
2022-10-15T21:11:41.354Z,83.40
2022-10-15T21:14:09.601Z,83.50
2022-10-15T21:16:37.757Z,83.60
2022-10-15T21:19:06.079Z,83.60
2022-10-15T21:21:34.409Z,83.50
2022-10-15T21:24:02.692Z,83.60
2022-10-15T21:26:30.798Z,83.40
2022-10-15T21:29:01.484Z,83.50
2022-10-15T21:31:29.866Z,83.60
2022-10-15T21:33:58.165Z,83.50
2022-10-15T21:36:27.494Z,83.70
2022-10-15T21:38:57.219Z,83.80
2022-10-15T21:41:27.162Z,83.80
2022-10-15T21:43:55.324Z,83.90
2022-10-15T21:46:25.378Z,83.90
2022-10-15T21:48:54.464Z,84.00
2022-10-15T21:51:25.114Z,84.00
2022-10-15T21:53:54.131Z,84.10
2022-10-15T21:56:23.044Z,84.10
2022-10-15T21:58:52.184Z,84.10
2022-10-15T22:01:22.865Z,84.20
2022-10-15T22:03:54.525Z,84.20
2022-10-15T22:06:22.780Z,84.20
2022-10-15T22:08:51.188Z,84.30
2022-10-15T22:11:22.189Z,84.30
2022-10-15T22:13:52.825Z,84.30
2022-10-15T22:16:21.699Z,84.30
2022-10-15T22:18:49.858Z,84.40
2022-10-15T22:21:21.198Z,84.60
2022-10-15T22:23:51.307Z,84.60
2022-10-15T22:26:21.566Z,84.50
2022-10-15T22:28:50.014Z,84.50
2022-10-15T22:31:18.384Z,84.60
2022-10-15T22:33:47.454Z,84.60
2022-10-15T22:36:18.777Z,84.60
2022-10-15T22:38:48.859Z,84.70
2022-10-15T22:41:17.420Z,84.60
2022-10-15T22:43:45.772Z,84.80
2022-10-15T22:46:14.548Z,84.90
2022-10-15T22:48:44.050Z,84.80
2022-10-15T22:51:14.461Z,84.90
2022-10-15T22:53:45.011Z,84.90
2022-10-15T22:56:14.911Z,85.10
2022-10-15T22:58:43.524Z,85.10
2022-10-15T23:01:13.720Z,85.10
2022-10-15T23:03:43.228Z,85.00
2022-10-15T23:06:12.075Z,85.10
2022-10-15T23:08:40.371Z,85.00
2022-10-15T23:11:13.261Z,85.10
2022-10-15T23:13:42.107Z,85.00
2022-10-15T23:16:14.617Z,85.00
2022-10-15T23:18:44.607Z,85.00
2022-10-15T23:21:14.935Z,85.00
2022-10-15T23:23:44.181Z,84.90
2022-10-15T23:26:15.274Z,85.10
2022-10-15T23:28:43.735Z,85.10
2022-10-15T23:31:17.029Z,85.10
2022-10-15T23:33:45.299Z,85.20
2022-10-15T23:36:13.546Z,85.30
2022-10-15T23:38:41.743Z,85.20
2022-10-15T23:41:11.004Z,85.30
2022-10-15T23:43:40.597Z,85.30
2022-10-15T23:46:09.317Z,85.30
2022-10-15T23:48:37.400Z,85.30
2022-10-15T23:51:13.439Z,85.30
2022-10-15T23:53:41.705Z,85.30
2022-10-15T23:56:10.114Z,85.40
2022-10-15T23:58:38.639Z,85.30
